Houghton County Memorial Airport Hancock US
ICAO: KCMX
IATA: CMX
Category: Medium
Scheduled Services: Yes

Elevation: 1095 ft
TransAlt. 18000 ft.

Airport Communications:
ASOS:125.675
MINNEAPOLIS CNTR:127.2
GREEN BAY RDO:122.525
CTAF/UNICOM:122.7

KCMX Zoom In..

If you have problems with the map follow the link
https://www.worldairports.se/pages/airport.php?
ICAO=KCMX

Runways:

(A) RW 07 length 5201 ft width 100 ft
---- / hdg 69

(B) RW 13 length 6500 ft width 150 ft
---- / hdg 133

(C) RW 25 length 5201 ft width 100 ft
---- / hdg 249

(D) RW 31 length 6500 ft width 150 ft
ILS 110.30 / hdg 313

Location; KCMX
Day. 19 / Time. 19.53 Zulu
* Altimeter: 30.45
* Temperature: -12° c. -10.4°f.
* Wind from: 300° Speed 16 kn.
Dewpoint: -17° c.
Visibility: 1/2 Statute Miles.
Clouds: Broken 1900 ft.
Clouds: Overcast 2400 ft.
Conditions: Snow.

KCMX 191953Z AUTO 30016KT 1/2SM SN BKN019 OVC024 M12/M17 A3045 RMK AO2 SLP339 P0000 T11221167


Wind From 300°
Speed 16 kn.

 
 
jpsmedia worldairports.se 2020   terms of use